sensor_id;sensor_type;location;lat;lon;timestamp;P1;durP1;ratioP1;P2;durP2;ratioP2
17790;SDS011;9019;48.132;-1.210;2022-08-19T00:00:28;12.85;;;9.30;;
17790;SDS011;9019;48.132;-1.210;2022-08-19T00:02:55;10.23;;;8.90;;
17790;SDS011;9019;48.132;-1.210;2022-08-19T00:05:24;14.05;;;10.18;;
17790;SDS011;9019;48.132;-1.210;2022-08-19T00:07:51;14.18;;;9.35;;
17790;SDS011;9019;48.132;-1.210;2022-08-19T00:10:19;15.25;;;10.27;;
17790;SDS011;9019;48.132;-1.210;2022-08-19T00:12:46;12.70;;;9.38;;
17790;SDS011;9019;48.132;-1.210;2022-08-19T00:15:15;13.88;;;9.80;;
17790;SDS011;9019;48.132;-1.210;2022-08-19T00:17:43;14.13;;;9.55;;
17790;SDS011;9019;48.132;-1.210;2022-08-19T00:20:12;12.52;;;9.90;;
17790;SDS011;9019;48.132;-1.210;2022-08-19T00:22:44;14.05;;;9.20;;
17790;SDS011;9019;48.132;-1.210;2022-08-19T00:25:12;13.60;;;9.13;;
17790;SDS011;9019;48.132;-1.210;2022-08-19T00:27:39;11.50;;;10.00;;
17790;SDS011;9019;48.132;-1.210;2022-08-19T00:30:07;11.70;;;8.82;;
17790;SDS011;9019;48.132;-1.210;2022-08-19T00:32:35;11.90;;;9.18;;
17790;SDS011;9019;48.132;-1.210;2022-08-19T00:35:04;11.75;;;9.13;;
17790;SDS011;9019;48.132;-1.210;2022-08-19T00:37:31;14.52;;;8.60;;
17790;SDS011;9019;48.132;-1.210;2022-08-19T00:40:02;12.10;;;8.73;;
17790;SDS011;9019;48.132;-1.210;2022-08-19T00:42:30;10.32;;;8.30;;
17790;SDS011;9019;48.132;-1.210;2022-08-19T00:44:57;11.25;;;8.07;;
17790;SDS011;9019;48.132;-1.210;2022-08-19T00:47:25;9.45;;;7.45;;
17790;SDS011;9019;48.132;-1.210;2022-08-19T00:49:53;9.18;;;7.35;;
17790;SDS011;9019;48.132;-1.210;2022-08-19T00:52:21;12.52;;;7.53;;
17790;SDS011;9019;48.132;-1.210;2022-08-19T00:54:50;7.72;;;6.93;;
17790;SDS011;9019;48.132;-1.210;2022-08-19T00:57:20;9.85;;;6.80;;
17790;SDS011;9019;48.132;-1.210;2022-08-19T00:59:51;10.60;;;7.00;;
17790;SDS011;9019;48.132;-1.210;2022-08-19T01:02:19;12.25;;;6.88;;
17790;SDS011;9019;48.132;-1.210;2022-08-19T01:04:46;9.13;;;6.72;;
17790;SDS011;9019;48.132;-1.210;2022-08-19T01:07:13;8.82;;;7.18;;
17790;SDS011;9019;48.132;-1.210;2022-08-19T01:09:41;10.48;;;6.45;;
17790;SDS011;9019;48.132;-1.210;2022-08-19T01:12:08;8.90;;;6.80;;
17790;SDS011;9019;48.132;-1.210;2022-08-19T01:14:37;9.68;;;6.05;;
17790;SDS011;9019;48.132;-1.210;2022-08-19T01:17:05;7.78;;;6.60;;
17790;SDS011;9019;48.132;-1.210;2022-08-19T01:19:35;10.35;;;6.53;;
17790;SDS011;9019;48.132;-1.210;2022-08-19T01:22:03;8.90;;;7.03;;
17790;SDS011;9019;48.132;-1.210;2022-08-19T01:24:34;9.77;;;7.72;;
17790;SDS011;9019;48.132;-1.210;2022-08-19T01:27:03;9.63;;;7.82;;
17790;SDS011;9019;48.132;-1.210;2022-08-19T01:29:30;11.05;;;8.13;;
17790;SDS011;9019;48.132;-1.210;2022-08-19T01:31:57;11.40;;;7.68;;
17790;SDS011;9019;48.132;-1.210;2022-08-19T01:34:25;10.85;;;7.97;;
17790;SDS011;9019;48.132;-1.210;2022-08-19T01:36:52;10.70;;;7.65;;
17790;SDS011;9019;48.132;-1.210;2022-08-19T01:39:20;12.02;;;6.72;;
17790;SDS011;9019;48.132;-1.210;2022-08-19T01:41:49;11.40;;;7.85;;
17790;SDS011;9019;48.132;-1.210;2022-08-19T01:44:19;9.30;;;6.95;;
17790;SDS011;9019;48.132;-1.210;2022-08-19T01:46:49;9.23;;;6.45;;
17790;SDS011;9019;48.132;-1.210;2022-08-19T01:49:17;7.68;;;5.88;;
17790;SDS011;9019;48.132;-1.210;2022-08-19T01:51:44;7.72;;;5.50;;
17790;SDS011;9019;48.132;-1.210;2022-08-19T01:54:13;6.97;;;5.35;;
17790;SDS011;9019;48.132;-1.210;2022-08-19T01:56:41;6.40;;;4.78;;
17790;SDS011;9019;48.132;-1.210;2022-08-19T01:59:10;6.47;;;5.45;;
17790;SDS011;9019;48.132;-1.210;2022-08-19T02:01:38;5.82;;;4.65;;
17790;SDS011;9019;48.132;-1.210;2022-08-19T02:04:05;6.18;;;4.60;;
17790;SDS011;9019;48.132;-1.210;2022-08-19T02:06:32;4.72;;;3.92;;
17790;SDS011;9019;48.132;-1.210;2022-08-19T02:09:00;6.97;;;3.90;;
17790;SDS011;9019;48.132;-1.210;2022-08-19T02:11:28;5.53;;;3.28;;
17790;SDS011;9019;48.132;-1.210;2022-08-19T02:13:56;4.05;;;3.40;;
17790;SDS011;9019;48.132;-1.210;2022-08-19T02:16:25;3.30;;;2.97;;
17790;SDS011;9019;48.132;-1.210;2022-08-19T02:18:52;8.00;;;2.85;;
17790;SDS011;9019;48.132;-1.210;2022-08-19T02:21:20;5.85;;;2.90;;
17790;SDS011;9019;48.132;-1.210;2022-08-19T02:23:48;8.00;;;2.90;;
17790;SDS011;9019;48.132;-1.210;2022-08-19T02:26:15;3.15;;;2.47;;
17790;SDS011;9019;48.132;-1.210;2022-08-19T02:28:43;5.20;;;2.90;;
17790;SDS011;9019;48.132;-1.210;2022-08-19T02:31:10;5.68;;;2.42;;
17790;SDS011;9019;48.132;-1.210;2022-08-19T02:33:39;6.85;;;3.05;;
17790;SDS011;9019;48.132;-1.210;2022-08-19T02:36:07;4.28;;;3.00;;
17790;SDS011;9019;48.132;-1.210;2022-08-19T02:38:35;5.88;;;2.50;;
17790;SDS011;9019;48.132;-1.210;2022-08-19T02:41:03;3.97;;;2.75;;
17790;SDS011;9019;48.132;-1.210;2022-08-19T02:43:32;3.45;;;2.53;;
17790;SDS011;9019;48.132;-1.210;2022-08-19T02:46:02;3.72;;;2.70;;
17790;SDS011;9019;48.132;-1.210;2022-08-19T02:48:29;6.03;;;2.72;;
17790;SDS011;9019;48.132;-1.210;2022-08-19T02:50:59;4.13;;;2.58;;
17790;SDS011;9019;48.132;-1.210;2022-08-19T02:53:26;3.90;;;2.40;;
17790;SDS011;9019;48.132;-1.210;2022-08-19T02:55:55;5.40;;;2.83;;
17790;SDS011;9019;48.132;-1.210;2022-08-19T02:58:23;5.18;;;2.72;;
17790;SDS011;9019;48.132;-1.210;2022-08-19T03:00:52;3.42;;;2.95;;
17790;SDS011;9019;48.132;-1.210;2022-08-19T03:03:20;4.07;;;2.70;;
17790;SDS011;9019;48.132;-1.210;2022-08-19T03:05:47;3.47;;;3.00;;
17790;SDS011;9019;48.132;-1.210;2022-08-19T03:08:16;6.65;;;3.13;;
17790;SDS011;9019;48.132;-1.210;2022-08-19T03:10:44;3.90;;;2.92;;
17790;SDS011;9019;48.132;-1.210;2022-08-19T03:13:12;7.40;;;3.15;;
17790;SDS011;9019;48.132;-1.210;2022-08-19T03:15:41;3.45;;;3.15;;
17790;SDS011;9019;48.132;-1.210;2022-08-19T03:18:09;6.03;;;2.78;;
17790;SDS011;9019;48.132;-1.210;2022-08-19T03:20:40;3.72;;;2.92;;
17790;SDS011;9019;48.132;-1.210;2022-08-19T03:23:07;6.78;;;3.55;;
17790;SDS011;9019;48.132;-1.210;2022-08-19T03:25:37;5.00;;;2.83;;
17790;SDS011;9019;48.132;-1.210;2022-08-19T03:28:05;5.72;;;3.33;;
17790;SDS011;9019;48.132;-1.210;2022-08-19T03:30:33;5.22;;;3.00;;
17790;SDS011;9019;48.132;-1.210;2022-08-19T03:33:00;4.15;;;2.70;;
17790;SDS011;9019;48.132;-1.210;2022-08-19T03:35:27;5.18;;;2.90;;
17790;SDS011;9019;48.132;-1.210;2022-08-19T03:37:55;6.13;;;2.65;;
17790;SDS011;9019;48.132;-1.210;2022-08-19T03:40:22;4.13;;;2.88;;
17790;SDS011;9019;48.132;-1.210;2022-08-19T03:42:50;7.60;;;3.15;;
17790;SDS011;9019;48.132;-1.210;2022-08-19T03:45:18;6.57;;;3.10;;
17790;SDS011;9019;48.132;-1.210;2022-08-19T03:47:45;3.30;;;3.00;;
17790;SDS011;9019;48.132;-1.210;2022-08-19T03:50:12;4.63;;;3.25;;
17790;SDS011;9019;48.132;-1.210;2022-08-19T03:52:40;4.88;;;3.17;;
17790;SDS011;9019;48.132;-1.210;2022-08-19T03:55:07;3.83;;;3.20;;
17790;SDS011;9019;48.132;-1.210;2022-08-19T03:57:34;5.97;;;3.42;;
17790;SDS011;9019;48.132;-1.210;2022-08-19T04:00:04;4.85;;;3.40;;
17790;SDS011;9019;48.132;-1.210;2022-08-19T04:02:32;7.25;;;4.00;;
17790;SDS011;9019;48.132;-1.210;2022-08-19T04:04:59;5.10;;;3.25;;
17790;SDS011;9019;48.132;-1.210;2022-08-19T04:07:27;4.55;;;3.60;;
17790;SDS011;9019;48.132;-1.210;2022-08-19T04:09:54;7.60;;;3.78;;
17790;SDS011;9019;48.132;-1.210;2022-08-19T04:12:21;4.53;;;3.83;;
17790;SDS011;9019;48.132;-1.210;2022-08-19T04:14:48;4.93;;;3.55;;
17790;SDS011;9019;48.132;-1.210;2022-08-19T04:17:17;6.90;;;4.13;;
17790;SDS011;9019;48.132;-1.210;2022-08-19T04:19:44;6.07;;;3.95;;
17790;SDS011;9019;48.132;-1.210;2022-08-19T04:22:12;8.10;;;3.45;;
17790;SDS011;9019;48.132;-1.210;2022-08-19T04:24:39;5.55;;;3.92;;
17790;SDS011;9019;48.132;-1.210;2022-08-19T04:27:06;5.38;;;4.00;;
17790;SDS011;9019;48.132;-1.210;2022-08-19T04:29:33;5.15;;;3.92;;
17790;SDS011;9019;48.132;-1.210;2022-08-19T04:32:02;8.55;;;4.20;;
17790;SDS011;9019;48.132;-1.210;2022-08-19T04:34:31;5.78;;;4.00;;
17790;SDS011;9019;48.132;-1.210;2022-08-19T04:36:59;7.10;;;4.20;;
17790;SDS011;9019;48.132;-1.210;2022-08-19T04:39:27;6.38;;;4.57;;
17790;SDS011;9019;48.132;-1.210;2022-08-19T04:42:08;5.78;;;4.60;;
17790;SDS011;9019;48.132;-1.210;2022-08-19T04:44:53;8.45;;;5.20;;
17790;SDS011;9019;48.132;-1.210;2022-08-19T04:47:21;7.25;;;5.10;;
17790;SDS011;9019;48.132;-1.210;2022-08-19T04:49:50;5.35;;;4.60;;
17790;SDS011;9019;48.132;-1.210;2022-08-19T04:52:17;6.82;;;4.45;;
17790;SDS011;9019;48.132;-1.210;2022-08-19T04:54:44;5.78;;;4.70;;
17790;SDS011;9019;48.132;-1.210;2022-08-19T04:57:11;9.18;;;4.82;;
17790;SDS011;9019;48.132;-1.210;2022-08-19T04:59:39;5.68;;;4.40;;
17790;SDS011;9019;48.132;-1.210;2022-08-19T05:02:07;5.10;;;3.95;;
17790;SDS011;9019;48.132;-1.210;2022-08-19T05:04:34;5.13;;;4.03;;
17790;SDS011;9019;48.132;-1.210;2022-08-19T05:07:05;4.20;;;3.80;;
17790;SDS011;9019;48.132;-1.210;2022-08-19T05:09:32;6.55;;;4.40;;
17790;SDS011;9019;48.132;-1.210;2022-08-19T05:12:00;5.22;;;4.25;;
17790;SDS011;9019;48.132;-1.210;2022-08-19T05:14:28;6.60;;;4.13;;
17790;SDS011;9019;48.132;-1.210;2022-08-19T05:16:55;6.05;;;4.10;;
17790;SDS011;9019;48.132;-1.210;2022-08-19T05:19:22;7.35;;;4.57;;
17790;SDS011;9019;48.132;-1.210;2022-08-19T05:22:08;6.00;;;4.40;;
17790;SDS011;9019;48.132;-1.210;2022-08-19T05:24:53;5.97;;;4.22;;
17790;SDS011;9019;48.132;-1.210;2022-08-19T05:27:20;5.57;;;4.28;;
17790;SDS011;9019;48.132;-1.210;2022-08-19T05:29:48;5.75;;;4.18;;
17790;SDS011;9019;48.132;-1.210;2022-08-19T05:32:15;7.38;;;4.25;;
17790;SDS011;9019;48.132;-1.210;2022-08-19T05:34:42;4.80;;;4.03;;
17790;SDS011;9019;48.132;-1.210;2022-08-19T05:37:11;8.57;;;4.70;;
17790;SDS011;9019;48.132;-1.210;2022-08-19T05:39:38;5.90;;;4.45;;
17790;SDS011;9019;48.132;-1.210;2022-08-19T05:42:06;4.60;;;3.97;;
17790;SDS011;9019;48.132;-1.210;2022-08-19T05:44:36;5.72;;;3.88;;
17790;SDS011;9019;48.132;-1.210;2022-08-19T05:47:04;4.63;;;3.95;;
17790;SDS011;9019;48.132;-1.210;2022-08-19T05:49:33;4.40;;;3.60;;
17790;SDS011;9019;48.132;-1.210;2022-08-19T05:52:01;4.78;;;3.80;;
17790;SDS011;9019;48.132;-1.210;2022-08-19T05:54:30;6.65;;;4.15;;
17790;SDS011;9019;48.132;-1.210;2022-08-19T05:56:57;5.07;;;3.90;;
17790;SDS011;9019;48.132;-1.210;2022-08-19T05:59:24;5.22;;;3.88;;
17790;SDS011;9019;48.132;-1.210;2022-08-19T06:01:52;5.32;;;3.80;;
17790;SDS011;9019;48.132;-1.210;2022-08-19T06:04:21;5.55;;;4.00;;
17790;SDS011;9019;48.132;-1.210;2022-08-19T06:06:50;4.60;;;3.97;;
17790;SDS011;9019;48.132;-1.210;2022-08-19T06:09:19;4.88;;;3.60;;
17790;SDS011;9019;48.132;-1.210;2022-08-19T06:11:48;4.15;;;3.53;;
17790;SDS011;9019;48.132;-1.210;2022-08-19T06:14:19;5.80;;;3.97;;
17790;SDS011;9019;48.132;-1.210;2022-08-19T06:16:47;5.75;;;3.47;;
17790;SDS011;9019;48.132;-1.210;2022-08-19T06:19:16;5.90;;;4.10;;
17790;SDS011;9019;48.132;-1.210;2022-08-19T06:21:45;5.22;;;3.92;;
17790;SDS011;9019;48.132;-1.210;2022-08-19T06:24:15;5.35;;;4.20;;
17790;SDS011;9019;48.132;-1.210;2022-08-19T06:26:43;4.72;;;3.80;;
17790;SDS011;9019;48.132;-1.210;2022-08-19T06:29:12;4.10;;;3.70;;
17790;SDS011;9019;48.132;-1.210;2022-08-19T06:31:41;5.25;;;4.15;;
17790;SDS011;9019;48.132;-1.210;2022-08-19T06:34:08;4.88;;;4.07;;
17790;SDS011;9019;48.132;-1.210;2022-08-19T06:36:36;5.53;;;4.22;;
17790;SDS011;9019;48.132;-1.210;2022-08-19T06:39:07;5.10;;;4.10;;
17790;SDS011;9019;48.132;-1.210;2022-08-19T06:41:35;5.40;;;4.10;;
17790;SDS011;9019;48.132;-1.210;2022-08-19T06:44:03;5.75;;;3.80;;
17790;SDS011;9019;48.132;-1.210;2022-08-19T06:46:32;5.15;;;4.15;;
17790;SDS011;9019;48.132;-1.210;2022-08-19T06:48:59;5.72;;;4.43;;
17790;SDS011;9019;48.132;-1.210;2022-08-19T06:51:26;4.80;;;3.85;;
17790;SDS011;9019;48.132;-1.210;2022-08-19T06:53:54;4.88;;;4.22;;
17790;SDS011;9019;48.132;-1.210;2022-08-19T06:56:24;6.50;;;4.28;;
17790;SDS011;9019;48.132;-1.210;2022-08-19T06:58:55;6.55;;;4.40;;
17790;SDS011;9019;48.132;-1.210;2022-08-19T07:01:23;4.80;;;3.75;;
17790;SDS011;9019;48.132;-1.210;2022-08-19T07:03:52;5.90;;;4.20;;
17790;SDS011;9019;48.132;-1.210;2022-08-19T07:06:19;4.43;;;3.88;;
17790;SDS011;9019;48.132;-1.210;2022-08-19T07:08:47;5.47;;;3.97;;
17790;SDS011;9019;48.132;-1.210;2022-08-19T07:11:16;4.65;;;4.25;;
17790;SDS011;9019;48.132;-1.210;2022-08-19T07:13:44;5.55;;;4.25;;
17790;SDS011;9019;48.132;-1.210;2022-08-19T07:16:14;3.92;;;3.53;;
17790;SDS011;9019;48.132;-1.210;2022-08-19T07:18:41;4.47;;;3.65;;
17790;SDS011;9019;48.132;-1.210;2022-08-19T07:21:11;5.60;;;4.07;;
17790;SDS011;9019;48.132;-1.210;2022-08-19T07:23:38;5.70;;;4.20;;
17790;SDS011;9019;48.132;-1.210;2022-08-19T07:26:06;5.13;;;3.85;;
17790;SDS011;9019;48.132;-1.210;2022-08-19T07:28:34;4.85;;;3.85;;
17790;SDS011;9019;48.132;-1.210;2022-08-19T07:31:04;5.78;;;3.90;;
17790;SDS011;9019;48.132;-1.210;2022-08-19T07:33:31;4.75;;;4.25;;
17790;SDS011;9019;48.132;-1.210;2022-08-19T07:36:02;5.40;;;3.95;;
17790;SDS011;9019;48.132;-1.210;2022-08-19T07:38:30;4.97;;;3.97;;
17790;SDS011;9019;48.132;-1.210;2022-08-19T07:40:58;5.65;;;4.10;;
17790;SDS011;9019;48.132;-1.210;2022-08-19T07:43:25;4.10;;;3.70;;
17790;SDS011;9019;48.132;-1.210;2022-08-19T07:45:53;4.45;;;3.75;;
17790;SDS011;9019;48.132;-1.210;2022-08-19T07:48:21;4.40;;;4.00;;
17790;SDS011;9019;48.132;-1.210;2022-08-19T07:50:50;6.22;;;4.40;;
17790;SDS011;9019;48.132;-1.210;2022-08-19T07:53:18;5.85;;;3.90;;
17790;SDS011;9019;48.132;-1.210;2022-08-19T07:55:46;5.18;;;3.97;;
17790;SDS011;9019;48.132;-1.210;2022-08-19T07:58:15;4.93;;;3.85;;
17790;SDS011;9019;48.132;-1.210;2022-08-19T08:00:44;5.68;;;3.85;;
17790;SDS011;9019;48.132;-1.210;2022-08-19T08:03:12;4.47;;;3.25;;
17790;SDS011;9019;48.132;-1.210;2022-08-19T08:05:40;6.00;;;3.33;;
17790;SDS011;9019;48.132;-1.210;2022-08-19T08:08:36;5.70;;;3.35;;
17790;SDS011;9019;48.132;-1.210;2022-08-19T08:11:22;6.15;;;3.38;;
17790;SDS011;9019;48.132;-1.210;2022-08-19T08:13:49;5.53;;;3.70;;
17790;SDS011;9019;48.132;-1.210;2022-08-19T08:16:17;5.28;;;3.45;;
17790;SDS011;9019;48.132;-1.210;2022-08-19T08:18:45;5.13;;;3.53;;
17790;SDS011;9019;48.132;-1.210;2022-08-19T08:21:12;4.15;;;3.15;;
17790;SDS011;9019;48.132;-1.210;2022-08-19T08:23:39;4.07;;;3.47;;
17790;SDS011;9019;48.132;-1.210;2022-08-19T08:26:07;5.32;;;3.20;;
17790;SDS011;9019;48.132;-1.210;2022-08-19T08:28:37;4.88;;;3.42;;
17790;SDS011;9019;48.132;-1.210;2022-08-19T08:31:04;4.50;;;3.30;;
17790;SDS011;9019;48.132;-1.210;2022-08-19T08:33:31;5.18;;;3.22;;
17790;SDS011;9019;48.132;-1.210;2022-08-19T08:35:59;6.00;;;4.22;;
17790;SDS011;9019;48.132;-1.210;2022-08-19T08:38:26;5.50;;;3.67;;
17790;SDS011;9019;48.132;-1.210;2022-08-19T08:40:56;5.80;;;3.55;;
17790;SDS011;9019;48.132;-1.210;2022-08-19T08:43:33;5.40;;;3.72;;
17790;SDS011;9019;48.132;-1.210;2022-08-19T08:46:07;6.30;;;3.60;;
17790;SDS011;9019;48.132;-1.210;2022-08-19T08:48:37;4.65;;;3.00;;
17790;SDS011;9019;48.132;-1.210;2022-08-19T08:51:05;5.10;;;3.20;;
17790;SDS011;9019;48.132;-1.210;2022-08-19T08:53:35;4.35;;;2.78;;
17790;SDS011;9019;48.132;-1.210;2022-08-19T08:56:03;6.60;;;3.00;;
17790;SDS011;9019;48.132;-1.210;2022-08-19T08:58:36;4.72;;;3.20;;
17790;SDS011;9019;48.132;-1.210;2022-08-19T09:01:09;4.50;;;2.78;;
17790;SDS011;9019;48.132;-1.210;2022-08-19T09:03:37;4.50;;;2.85;;
17790;SDS011;9019;48.132;-1.210;2022-08-19T09:06:06;5.32;;;3.10;;
17790;SDS011;9019;48.132;-1.210;2022-08-19T09:08:38;4.18;;;2.88;;
17790;SDS011;9019;48.132;-1.210;2022-08-19T09:11:06;4.47;;;2.72;;
17790;SDS011;9019;48.132;-1.210;2022-08-19T09:13:35;4.90;;;2.55;;
17790;SDS011;9019;48.132;-1.210;2022-08-19T09:16:06;3.88;;;2.88;;
17790;SDS011;9019;48.132;-1.210;2022-08-19T09:18:39;5.03;;;2.80;;
17790;SDS011;9019;48.132;-1.210;2022-08-19T09:21:07;5.75;;;3.05;;
17790;SDS011;9019;48.132;-1.210;2022-08-19T09:23:34;5.75;;;2.75;;
17790;SDS011;9019;48.132;-1.210;2022-08-19T09:26:06;4.43;;;2.63;;
17790;SDS011;9019;48.132;-1.210;2022-08-19T09:28:34;5.18;;;2.55;;
17790;SDS011;9019;48.132;-1.210;2022-08-19T09:31:02;4.88;;;2.75;;
17790;SDS011;9019;48.132;-1.210;2022-08-19T09:33:29;4.30;;;3.00;;
17790;SDS011;9019;48.132;-1.210;2022-08-19T09:36:05;5.85;;;3.00;;
17790;SDS011;9019;48.132;-1.210;2022-08-19T09:38:33;5.72;;;3.15;;
17790;SDS011;9019;48.132;-1.210;2022-08-19T09:41:04;4.65;;;3.03;;
17790;SDS011;9019;48.132;-1.210;2022-08-19T09:43:31;5.10;;;2.67;;
17790;SDS011;9019;48.132;-1.210;2022-08-19T09:46:01;3.45;;;2.72;;
17790;SDS011;9019;48.132;-1.210;2022-08-19T09:48:30;4.75;;;2.70;;
17790;SDS011;9019;48.132;-1.210;2022-08-19T09:51:01;4.38;;;2.72;;
17790;SDS011;9019;48.132;-1.210;2022-08-19T09:53:30;5.45;;;2.35;;
17790;SDS011;9019;48.132;-1.210;2022-08-19T09:55:58;4.20;;;2.20;;
17790;SDS011;9019;48.132;-1.210;2022-08-19T09:58:26;3.33;;;1.85;;
17790;SDS011;9019;48.132;-1.210;2022-08-19T10:00:55;4.97;;;2.30;;
17790;SDS011;9019;48.132;-1.210;2022-08-19T10:03:22;4.18;;;2.80;;
17790;SDS011;9019;48.132;-1.210;2022-08-19T10:05:49;4.93;;;2.75;;
17790;SDS011;9019;48.132;-1.210;2022-08-19T10:08:18;6.05;;;3.00;;
17790;SDS011;9019;48.132;-1.210;2022-08-19T10:10:47;4.57;;;2.60;;
17790;SDS011;9019;48.132;-1.210;2022-08-19T10:13:15;7.53;;;2.83;;
17790;SDS011;9019;48.132;-1.210;2022-08-19T10:15:42;4.38;;;2.38;;
17790;SDS011;9019;48.132;-1.210;2022-08-19T10:18:10;4.15;;;1.85;;
17790;SDS011;9019;48.132;-1.210;2022-08-19T10:20:37;3.25;;;2.00;;
17790;SDS011;9019;48.132;-1.210;2022-08-19T10:23:06;4.47;;;1.90;;
17790;SDS011;9019;48.132;-1.210;2022-08-19T10:25:33;3.45;;;1.60;;
17790;SDS011;9019;48.132;-1.210;2022-08-19T10:28:02;3.50;;;1.77;;
17790;SDS011;9019;48.132;-1.210;2022-08-19T10:30:32;2.20;;;1.50;;
17790;SDS011;9019;48.132;-1.210;2022-08-19T10:32:59;2.35;;;1.77;;
17790;SDS011;9019;48.132;-1.210;2022-08-19T10:35:26;3.58;;;2.15;;
17790;SDS011;9019;48.132;-1.210;2022-08-19T10:37:54;4.00;;;2.08;;
17790;SDS011;9019;48.132;-1.210;2022-08-19T10:40:24;4.55;;;1.80;;
17790;SDS011;9019;48.132;-1.210;2022-08-19T10:42:51;3.28;;;2.03;;
17790;SDS011;9019;48.132;-1.210;2022-08-19T10:45:20;4.20;;;2.00;;
17790;SDS011;9019;48.132;-1.210;2022-08-19T10:47:50;3.55;;;1.80;;
17790;SDS011;9019;48.132;-1.210;2022-08-19T10:50:17;3.22;;;1.92;;
17790;SDS011;9019;48.132;-1.210;2022-08-19T10:53:03;10.65;;;2.22;;
17790;SDS011;9019;48.132;-1.210;2022-08-19T10:55:31;3.25;;;1.90;;
17790;SDS011;9019;48.132;-1.210;2022-08-19T10:58:16;4.35;;;1.90;;
17790;SDS011;9019;48.132;-1.210;2022-08-19T11:00:52;4.68;;;2.08;;
17790;SDS011;9019;48.132;-1.210;2022-08-19T11:03:20;5.32;;;2.25;;
17790;SDS011;9019;48.132;-1.210;2022-08-19T11:05:51;4.38;;;2.25;;
17790;SDS011;9019;48.132;-1.210;2022-08-19T11:08:24;2.55;;;1.95;;
17790;SDS011;9019;48.132;-1.210;2022-08-19T11:10:51;3.45;;;1.90;;
17790;SDS011;9019;48.132;-1.210;2022-08-19T11:13:20;3.40;;;1.90;;
17790;SDS011;9019;48.132;-1.210;2022-08-19T11:15:56;2.53;;;1.80;;
17790;SDS011;9019;48.132;-1.210;2022-08-19T11:18:24;2.33;;;1.55;;
17790;SDS011;9019;48.132;-1.210;2022-08-19T11:20:51;3.03;;;1.88;;
17790;SDS011;9019;48.132;-1.210;2022-08-19T11:23:19;3.30;;;1.10;;
17790;SDS011;9019;48.132;-1.210;2022-08-19T11:25:46;1.25;;;0.90;;
17790;SDS011;9019;48.132;-1.210;2022-08-19T11:28:13;2.85;;;1.08;;
17790;SDS011;9019;48.132;-1.210;2022-08-19T11:30:40;2.10;;;1.30;;
17790;SDS011;9019;48.132;-1.210;2022-08-19T11:33:09;2.58;;;1.00;;
17790;SDS011;9019;48.132;-1.210;2022-08-19T11:35:38;1.60;;;0.88;;
17790;SDS011;9019;48.132;-1.210;2022-08-19T11:38:06;6.97;;;1.50;;
17790;SDS011;9019;48.132;-1.210;2022-08-19T11:40:33;2.10;;;1.45;;
17790;SDS011;9019;48.132;-1.210;2022-08-19T11:43:00;2.13;;;1.35;;
17790;SDS011;9019;48.132;-1.210;2022-08-19T11:45:28;3.38;;;1.60;;
17790;SDS011;9019;48.132;-1.210;2022-08-19T11:47:55;7.43;;;1.63;;
17790;SDS011;9019;48.132;-1.210;2022-08-19T11:50:24;2.67;;;1.50;;
17790;SDS011;9019;48.132;-1.210;2022-08-19T11:52:53;2.15;;;1.30;;
17790;SDS011;9019;48.132;-1.210;2022-08-19T11:55:20;1.88;;;1.00;;
17790;SDS011;9019;48.132;-1.210;2022-08-19T11:57:48;2.30;;;1.20;;
17790;SDS011;9019;48.132;-1.210;2022-08-19T12:00:15;2.25;;;1.13;;
17790;SDS011;9019;48.132;-1.210;2022-08-19T12:02:43;1.88;;;1.30;;
17790;SDS011;9019;48.132;-1.210;2022-08-19T12:05:10;2.55;;;1.27;;
17790;SDS011;9019;48.132;-1.210;2022-08-19T12:07:39;1.88;;;0.90;;
17790;SDS011;9019;48.132;-1.210;2022-08-19T12:10:09;2.85;;;1.30;;
17790;SDS011;9019;48.132;-1.210;2022-08-19T12:12:36;2.72;;;1.40;;
17790;SDS011;9019;48.132;-1.210;2022-08-19T12:15:08;1.75;;;1.15;;
17790;SDS011;9019;48.132;-1.210;2022-08-19T12:17:36;2.20;;;1.20;;
17790;SDS011;9019;48.132;-1.210;2022-08-19T12:20:03;1.88;;;1.23;;
17790;SDS011;9019;48.132;-1.210;2022-08-19T12:22:31;1.70;;;1.17;;
17790;SDS011;9019;48.132;-1.210;2022-08-19T12:25:01;3.22;;;1.30;;
17790;SDS011;9019;48.132;-1.210;2022-08-19T12:27:28;2.47;;;1.30;;
17790;SDS011;9019;48.132;-1.210;2022-08-19T12:29:55;2.53;;;1.33;;
17790;SDS011;9019;48.132;-1.210;2022-08-19T12:32:23;2.10;;;1.25;;
17790;SDS011;9019;48.132;-1.210;2022-08-19T12:34:51;3.00;;;1.23;;
17790;SDS011;9019;48.132;-1.210;2022-08-19T12:37:19;2.53;;;1.38;;
17790;SDS011;9019;48.132;-1.210;2022-08-19T12:39:46;7.55;;;1.63;;
17790;SDS011;9019;48.132;-1.210;2022-08-19T12:42:15;4.30;;;1.65;;
17790;SDS011;9019;48.132;-1.210;2022-08-19T12:44:43;4.95;;;1.63;;
17790;SDS011;9019;48.132;-1.210;2022-08-19T12:47:11;3.10;;;1.50;;
17790;SDS011;9019;48.132;-1.210;2022-08-19T12:49:39;5.82;;;1.85;;
17790;SDS011;9019;48.132;-1.210;2022-08-19T12:52:07;3.47;;;1.60;;
17790;SDS011;9019;48.132;-1.210;2022-08-19T12:54:35;3.97;;;1.48;;
17790;SDS011;9019;48.132;-1.210;2022-08-19T12:57:04;3.80;;;1.73;;
17790;SDS011;9019;48.132;-1.210;2022-08-19T12:59:34;4.53;;;2.00;;
17790;SDS011;9019;48.132;-1.210;2022-08-19T13:02:01;8.18;;;1.63;;
17790;SDS011;9019;48.132;-1.210;2022-08-19T13:04:31;2.53;;;1.60;;
17790;SDS011;9019;48.132;-1.210;2022-08-19T13:07:00;4.47;;;1.85;;
17790;SDS011;9019;48.132;-1.210;2022-08-19T13:09:27;3.38;;;1.50;;
17790;SDS011;9019;48.132;-1.210;2022-08-19T13:11:54;1.60;;;1.17;;
17790;SDS011;9019;48.132;-1.210;2022-08-19T13:14:22;2.75;;;1.30;;
17790;SDS011;9019;48.132;-1.210;2022-08-19T13:16:50;2.95;;;1.30;;
17790;SDS011;9019;48.132;-1.210;2022-08-19T13:19:18;1.23;;;1.10;;
17790;SDS011;9019;48.132;-1.210;2022-08-19T13:21:48;2.03;;;0.98;;
17790;SDS011;9019;48.132;-1.210;2022-08-19T13:24:16;1.02;;;0.90;;
17790;SDS011;9019;48.132;-1.210;2022-08-19T13:26:43;3.58;;;1.00;;
17790;SDS011;9019;48.132;-1.210;2022-08-19T13:29:10;2.05;;;1.05;;
17790;SDS011;9019;48.132;-1.210;2022-08-19T13:31:57;2.50;;;0.88;;
17790;SDS011;9019;48.132;-1.210;2022-08-19T13:34:42;2.33;;;0.95;;
17790;SDS011;9019;48.132;-1.210;2022-08-19T13:37:11;2.72;;;1.48;;
17790;SDS011;9019;48.132;-1.210;2022-08-19T13:39:38;1.55;;;1.30;;
17790;SDS011;9019;48.132;-1.210;2022-08-19T13:42:06;3.08;;;1.63;;
17790;SDS011;9019;48.132;-1.210;2022-08-19T13:44:35;2.00;;;1.50;;
17790;SDS011;9019;48.132;-1.210;2022-08-19T13:47:04;4.25;;;1.80;;
17790;SDS011;9019;48.132;-1.210;2022-08-19T13:49:34;2.78;;;1.58;;
17790;SDS011;9019;48.132;-1.210;2022-08-19T13:52:02;3.10;;;2.05;;
17790;SDS011;9019;48.132;-1.210;2022-08-19T13:54:29;2.88;;;1.85;;
17790;SDS011;9019;48.132;-1.210;2022-08-19T13:56:57;5.65;;;2.15;;
17790;SDS011;9019;48.132;-1.210;2022-08-19T13:59:25;3.38;;;2.10;;
17790;SDS011;9019;48.132;-1.210;2022-08-19T14:01:52;3.20;;;1.83;;
17790;SDS011;9019;48.132;-1.210;2022-08-19T14:04:20;3.60;;;2.03;;
17790;SDS011;9019;48.132;-1.210;2022-08-19T14:06:48;3.30;;;1.90;;
17790;SDS011;9019;48.132;-1.210;2022-08-19T14:09:15;3.35;;;1.52;;
17790;SDS011;9019;48.132;-1.210;2022-08-19T14:11:42;2.60;;;1.55;;
17790;SDS011;9019;48.132;-1.210;2022-08-19T14:14:11;2.58;;;1.40;;
17790;SDS011;9019;48.132;-1.210;2022-08-19T14:16:38;2.45;;;1.50;;
17790;SDS011;9019;48.132;-1.210;2022-08-19T14:19:07;3.97;;;1.35;;
17790;SDS011;9019;48.132;-1.210;2022-08-19T14:21:36;3.55;;;1.63;;
17790;SDS011;9019;48.132;-1.210;2022-08-19T14:24:04;2.38;;;1.40;;
17790;SDS011;9019;48.132;-1.210;2022-08-19T14:26:31;2.05;;;1.48;;
17790;SDS011;9019;48.132;-1.210;2022-08-19T14:28:58;1.50;;;0.98;;
17790;SDS011;9019;48.132;-1.210;2022-08-19T14:31:26;0.73;;;0.20;;
17790;SDS011;9019;48.132;-1.210;2022-08-19T14:33:53;1.15;;;0.20;;
17790;SDS011;9019;48.132;-1.210;2022-08-19T14:36:20;0.17;;;0.10;;
17790;SDS011;9019;48.132;-1.210;2022-08-19T14:38:49;2.50;;;0.20;;
17790;SDS011;9019;48.132;-1.210;2022-08-19T14:41:17;4.13;;;0.30;;
17790;SDS011;9019;48.132;-1.210;2022-08-19T14:43:45;0.65;;;0.25;;
17790;SDS011;9019;48.132;-1.210;2022-08-19T14:46:15;3.20;;;0.30;;
17790;SDS011;9019;48.132;-1.210;2022-08-19T14:48:44;1.67;;;0.40;;
17790;SDS011;9019;48.132;-1.210;2022-08-19T14:51:11;2.15;;;0.20;;
17790;SDS011;9019;48.132;-1.210;2022-08-19T14:53:39;0.43;;;0.40;;